Live aus Altenrhein
LIVE
LSZR 220550Z AUTO 24016KT 200V270 9999 OVC060 11/05 Q1019
Zeitraffer heute
2017-10-22 00:14:55
LSZR 212150Z AUTO 27012KT 9999 RA FEW019 OVC060 11/09 Q1021
Zeitraffer gestern
2017-10-21 00:00:00
LSZR 202150Z AUTO 11004KT 9999 NSC 13/10 Q1018
Zeitraffer vor 3 Tagen
2017-10-19 00:14:58
LSZR 182150Z AUTO VRB02KT 4100 BR NCD 08/08 Q1016 REDZ